sensor_id;sensor_type;location;lat;lon;timestamp;P1;durP1;ratioP1;P2;durP2;ratioP2
16804;SDS011;8520;50.102;20.010;2022-11-30T00:01:34;78.83;;;70.83;;
16804;SDS011;8520;50.102;20.010;2022-11-30T00:04:03;77.20;;;69.30;;
16804;SDS011;8520;50.102;20.010;2022-11-30T00:06:31;76.60;;;68.87;;
16804;SDS011;8520;50.102;20.010;2022-11-30T00:08:59;75.60;;;68.00;;
16804;SDS011;8520;50.102;20.010;2022-11-30T00:11:27;76.73;;;68.67;;
16804;SDS011;8520;50.102;20.010;2022-11-30T00:13:58;73.80;;;66.30;;
16804;SDS011;8520;50.102;20.010;2022-11-30T00:16:27;73.20;;;65.57;;
16804;SDS011;8520;50.102;20.010;2022-11-30T00:18:55;72.67;;;65.33;;
16804;SDS011;8520;50.102;20.010;2022-11-30T00:21:23;72.60;;;65.20;;
16804;SDS011;8520;50.102;20.010;2022-11-30T00:23:51;71.43;;;64.40;;
16804;SDS011;8520;50.102;20.010;2022-11-30T00:26:19;73.43;;;65.93;;
16804;SDS011;8520;50.102;20.010;2022-11-30T00:28:48;73.50;;;65.97;;
16804;SDS011;8520;50.102;20.010;2022-11-30T00:31:18;74.30;;;66.90;;
16804;SDS011;8520;50.102;20.010;2022-11-30T00:33:46;74.90;;;67.40;;
16804;SDS011;8520;50.102;20.010;2022-11-30T00:36:15;73.83;;;66.23;;
16804;SDS011;8520;50.102;20.010;2022-11-30T00:38:45;74.83;;;67.13;;
16804;SDS011;8520;50.102;20.010;2022-11-30T00:41:13;75.37;;;67.60;;
16804;SDS011;8520;50.102;20.010;2022-11-30T00:43:44;77.97;;;69.47;;
16804;SDS011;8520;50.102;20.010;2022-11-30T00:46:12;75.83;;;66.97;;
16804;SDS011;8520;50.102;20.010;2022-11-30T00:48:42;77.67;;;66.93;;
16804;SDS011;8520;50.102;20.010;2022-11-30T00:51:10;73.17;;;65.53;;
16804;SDS011;8520;50.102;20.010;2022-11-30T00:53:38;102.10;;;74.80;;
16804;SDS011;8520;50.102;20.010;2022-11-30T00:56:08;81.80;;;72.90;;
16804;SDS011;8520;50.102;20.010;2022-11-30T00:58:36;80.63;;;71.07;;
16804;SDS011;8520;50.102;20.010;2022-11-30T01:01:04;76.50;;;68.40;;
16804;SDS011;8520;50.102;20.010;2022-11-30T01:03:33;73.17;;;65.47;;
16804;SDS011;8520;50.102;20.010;2022-11-30T01:06:03;71.83;;;64.37;;
16804;SDS011;8520;50.102;20.010;2022-11-30T01:08:32;72.03;;;64.43;;
16804;SDS011;8520;50.102;20.010;2022-11-30T01:11:05;71.10;;;63.70;;
16804;SDS011;8520;50.102;20.010;2022-11-30T01:13:35;72.00;;;64.37;;
16804;SDS011;8520;50.102;20.010;2022-11-30T01:16:07;70.27;;;62.80;;
16804;SDS011;8520;50.102;20.010;2022-11-30T01:18:36;69.23;;;61.90;;
16804;SDS011;8520;50.102;20.010;2022-11-30T01:21:06;69.93;;;62.67;;
16804;SDS011;8520;50.102;20.010;2022-11-30T01:23:35;71.77;;;63.93;;
16804;SDS011;8520;50.102;20.010;2022-11-30T01:26:03;100.43;;;67.60;;
16804;SDS011;8520;50.102;20.010;2022-11-30T01:28:31;75.90;;;66.50;;
16804;SDS011;8520;50.102;20.010;2022-11-30T01:31:00;72.20;;;64.53;;
16804;SDS011;8520;50.102;20.010;2022-11-30T01:33:30;71.63;;;63.77;;
16804;SDS011;8520;50.102;20.010;2022-11-30T01:35:58;72.90;;;63.87;;
16804;SDS011;8520;50.102;20.010;2022-11-30T01:38:33;70.03;;;62.57;;
16804;SDS011;8520;50.102;20.010;2022-11-30T01:41:04;74.73;;;64.40;;
16804;SDS011;8520;50.102;20.010;2022-11-30T01:43:36;70.40;;;62.87;;
16804;SDS011;8520;50.102;20.010;2022-11-30T01:46:13;69.50;;;62.03;;
16804;SDS011;8520;50.102;20.010;2022-11-30T01:48:53;70.37;;;61.93;;
16804;SDS011;8520;50.102;20.010;2022-11-30T01:51:24;72.20;;;64.40;;
16804;SDS011;8520;50.102;20.010;2022-11-30T01:53:56;70.63;;;63.27;;
16804;SDS011;8520;50.102;20.010;2022-11-30T01:56:25;70.07;;;62.70;;
16804;SDS011;8520;50.102;20.010;2022-11-30T01:58:52;70.77;;;63.30;;
16804;SDS011;8520;50.102;20.010;2022-11-30T02:01:21;69.70;;;62.40;;
16804;SDS011;8520;50.102;20.010;2022-11-30T02:03:51;66.17;;;59.37;;
16804;SDS011;8520;50.102;20.010;2022-11-30T02:06:25;65.97;;;59.27;;
16804;SDS011;8520;50.102;20.010;2022-11-30T02:08:53;65.97;;;59.10;;
16804;SDS011;8520;50.102;20.010;2022-11-30T02:11:23;66.97;;;59.77;;
16804;SDS011;8520;50.102;20.010;2022-11-30T02:16:52;64.77;;;58.27;;
16804;SDS011;8520;50.102;20.010;2022-11-30T02:22:28;61.97;;;55.77;;
16804;SDS011;8520;50.102;20.010;2022-11-30T02:25:09;63.17;;;57.07;;
16804;SDS011;8520;50.102;20.010;2022-11-30T02:27:52;61.97;;;55.63;;
16804;SDS011;8520;50.102;20.010;2022-11-30T02:30:41;63.70;;;57.07;;
16804;SDS011;8520;50.102;20.010;2022-11-30T02:33:13;64.67;;;58.17;;
16804;SDS011;8520;50.102;20.010;2022-11-30T02:35:45;61.93;;;55.70;;
16804;SDS011;8520;50.102;20.010;2022-11-30T02:38:21;65.93;;;58.87;;
16804;SDS011;8520;50.102;20.010;2022-11-30T02:40:51;64.93;;;58.57;;
16804;SDS011;8520;50.102;20.010;2022-11-30T02:43:20;65.33;;;58.70;;
16804;SDS011;8520;50.102;20.010;2022-11-30T02:45:54;59.77;;;54.17;;
16804;SDS011;8520;50.102;20.010;2022-11-30T02:48:31;59.93;;;54.37;;
16804;SDS011;8520;50.102;20.010;2022-11-30T02:51:05;61.27;;;55.33;;
16804;SDS011;8520;50.102;20.010;2022-11-30T02:53:36;61.20;;;55.30;;
16804;SDS011;8520;50.102;20.010;2022-11-30T02:56:04;62.50;;;56.37;;
16804;SDS011;8520;50.102;20.010;2022-11-30T02:58:32;62.07;;;55.90;;
16804;SDS011;8520;50.102;20.010;2022-11-30T03:01:02;59.50;;;53.77;;
16804;SDS011;8520;50.102;20.010;2022-11-30T03:03:30;60.93;;;54.93;;
16804;SDS011;8520;50.102;20.010;2022-11-30T03:05:58;61.73;;;55.73;;
16804;SDS011;8520;50.102;20.010;2022-11-30T03:08:26;61.30;;;55.43;;
16804;SDS011;8520;50.102;20.010;2022-11-30T03:10:54;60.17;;;53.93;;
16804;SDS011;8520;50.102;20.010;2022-11-30T03:13:22;60.27;;;54.13;;
16804;SDS011;8520;50.102;20.010;2022-11-30T03:15:50;59.47;;;53.67;;
16804;SDS011;8520;50.102;20.010;2022-11-30T03:18:19;60.37;;;54.27;;
16804;SDS011;8520;50.102;20.010;2022-11-30T03:20:47;58.13;;;52.43;;
16804;SDS011;8520;50.102;20.010;2022-11-30T03:23:15;59.90;;;53.97;;
16804;SDS011;8520;50.102;20.010;2022-11-30T03:25:43;61.77;;;55.27;;
16804;SDS011;8520;50.102;20.010;2022-11-30T03:28:11;58.07;;;52.27;;
16804;SDS011;8520;50.102;20.010;2022-11-30T03:30:39;61.20;;;55.20;;
16804;SDS011;8520;50.102;20.010;2022-11-30T03:33:07;61.43;;;55.47;;
16804;SDS011;8520;50.102;20.010;2022-11-30T03:35:36;60.00;;;54.20;;
16804;SDS011;8520;50.102;20.010;2022-11-30T03:38:04;62.27;;;56.27;;
16804;SDS011;8520;50.102;20.010;2022-11-30T03:40:32;61.23;;;55.13;;
16804;SDS011;8520;50.102;20.010;2022-11-30T03:43:00;61.47;;;55.47;;
16804;SDS011;8520;50.102;20.010;2022-11-30T03:45:28;62.03;;;55.87;;
16804;SDS011;8520;50.102;20.010;2022-11-30T03:47:56;60.67;;;54.67;;
16804;SDS011;8520;50.102;20.010;2022-11-30T03:50:24;62.90;;;56.13;;
16804;SDS011;8520;50.102;20.010;2022-11-30T03:52:53;62.53;;;56.03;;
16804;SDS011;8520;50.102;20.010;2022-11-30T03:55:21;66.07;;;59.17;;
16804;SDS011;8520;50.102;20.010;2022-11-30T03:57:49;64.10;;;57.60;;
16804;SDS011;8520;50.102;20.010;2022-11-30T04:00:18;67.23;;;59.93;;
16804;SDS011;8520;50.102;20.010;2022-11-30T04:02:46;67.20;;;60.07;;
16804;SDS011;8520;50.102;20.010;2022-11-30T04:05:14;66.90;;;59.90;;
16804;SDS011;8520;50.102;20.010;2022-11-30T04:07:43;67.90;;;60.50;;
16804;SDS011;8520;50.102;20.010;2022-11-30T04:10:12;66.40;;;59.63;;
16804;SDS011;8520;50.102;20.010;2022-11-30T04:12:40;65.93;;;59.07;;
16804;SDS011;8520;50.102;20.010;2022-11-30T04:15:09;71.10;;;63.50;;
16804;SDS011;8520;50.102;20.010;2022-11-30T04:17:37;69.07;;;61.73;;
16804;SDS011;8520;50.102;20.010;2022-11-30T04:20:05;67.70;;;60.57;;
16804;SDS011;8520;50.102;20.010;2022-11-30T04:22:34;71.37;;;63.83;;
16804;SDS011;8520;50.102;20.010;2022-11-30T04:25:02;72.97;;;63.93;;
16804;SDS011;8520;50.102;20.010;2022-11-30T04:27:31;71.27;;;63.80;;
16804;SDS011;8520;50.102;20.010;2022-11-30T04:29:59;71.90;;;64.47;;
16804;SDS011;8520;50.102;20.010;2022-11-30T04:32:27;71.43;;;63.93;;
16804;SDS011;8520;50.102;20.010;2022-11-30T04:34:55;68.33;;;61.20;;
16804;SDS011;8520;50.102;20.010;2022-11-30T04:37:23;71.00;;;63.40;;
16804;SDS011;8520;50.102;20.010;2022-11-30T04:39:51;67.33;;;60.23;;
16804;SDS011;8520;50.102;20.010;2022-11-30T04:42:19;68.33;;;61.17;;
16804;SDS011;8520;50.102;20.010;2022-11-30T04:44:48;68.53;;;61.40;;
16804;SDS011;8520;50.102;20.010;2022-11-30T04:47:16;68.07;;;61.27;;
16804;SDS011;8520;50.102;20.010;2022-11-30T04:49:44;66.43;;;59.63;;
16804;SDS011;8520;50.102;20.010;2022-11-30T04:52:12;70.00;;;62.57;;
16804;SDS011;8520;50.102;20.010;2022-11-30T04:54:40;69.53;;;62.33;;
16804;SDS011;8520;50.102;20.010;2022-11-30T04:57:08;67.57;;;60.77;;
16804;SDS011;8520;50.102;20.010;2022-11-30T04:59:36;66.60;;;59.60;;
16804;SDS011;8520;50.102;20.010;2022-11-30T05:02:05;67.37;;;60.43;;
16804;SDS011;8520;50.102;20.010;2022-11-30T05:04:33;68.43;;;61.37;;
16804;SDS011;8520;50.102;20.010;2022-11-30T05:07:01;67.67;;;60.67;;
16804;SDS011;8520;50.102;20.010;2022-11-30T05:09:29;67.33;;;60.40;;
16804;SDS011;8520;50.102;20.010;2022-11-30T05:11:57;68.77;;;61.53;;
16804;SDS011;8520;50.102;20.010;2022-11-30T05:14:25;71.73;;;64.13;;
16804;SDS011;8520;50.102;20.010;2022-11-30T05:16:53;70.57;;;62.93;;
16804;SDS011;8520;50.102;20.010;2022-11-30T05:19:23;70.40;;;62.87;;
16804;SDS011;8520;50.102;20.010;2022-11-30T05:21:51;67.97;;;61.27;;
16804;SDS011;8520;50.102;20.010;2022-11-30T05:24:19;70.90;;;63.40;;
16804;SDS011;8520;50.102;20.010;2022-11-30T05:26:47;69.83;;;62.57;;
16804;SDS011;8520;50.102;20.010;2022-11-30T05:29:14;69.00;;;62.00;;
16804;SDS011;8520;50.102;20.010;2022-11-30T05:31:42;69.57;;;62.53;;
16804;SDS011;8520;50.102;20.010;2022-11-30T05:34:10;73.43;;;66.03;;
16804;SDS011;8520;50.102;20.010;2022-11-30T05:36:40;70.23;;;62.83;;
16804;SDS011;8520;50.102;20.010;2022-11-30T05:39:08;73.80;;;66.20;;
16804;SDS011;8520;50.102;20.010;2022-11-30T05:41:36;72.73;;;65.03;;
16804;SDS011;8520;50.102;20.010;2022-11-30T05:44:04;72.40;;;64.60;;
16804;SDS011;8520;50.102;20.010;2022-11-30T05:46:32;72.67;;;64.87;;
16804;SDS011;8520;50.102;20.010;2022-11-30T05:49:06;76.27;;;66.53;;
16804;SDS011;8520;50.102;20.010;2022-11-30T05:51:34;71.80;;;63.70;;
16804;SDS011;8520;50.102;20.010;2022-11-30T05:54:03;72.30;;;64.60;;
16804;SDS011;8520;50.102;20.010;2022-11-30T05:56:31;73.07;;;65.37;;
16804;SDS011;8520;50.102;20.010;2022-11-30T05:58:59;73.13;;;65.53;;
16804;SDS011;8520;50.102;20.010;2022-11-30T06:01:27;70.70;;;63.27;;
16804;SDS011;8520;50.102;20.010;2022-11-30T06:03:56;70.40;;;63.10;;
16804;SDS011;8520;50.102;20.010;2022-11-30T06:06:24;71.00;;;63.23;;
16804;SDS011;8520;50.102;20.010;2022-11-30T06:08:52;71.87;;;64.33;;
16804;SDS011;8520;50.102;20.010;2022-11-30T06:11:22;69.67;;;62.53;;
16804;SDS011;8520;50.102;20.010;2022-11-30T06:13:49;70.20;;;62.97;;
16804;SDS011;8520;50.102;20.010;2022-11-30T06:16:18;71.80;;;64.50;;
16804;SDS011;8520;50.102;20.010;2022-11-30T06:18:46;67.93;;;60.83;;
16804;SDS011;8520;50.102;20.010;2022-11-30T06:21:13;70.57;;;63.37;;
16804;SDS011;8520;50.102;20.010;2022-11-30T06:23:49;70.43;;;63.40;;
16804;SDS011;8520;50.102;20.010;2022-11-30T06:26:17;68.50;;;61.47;;
16804;SDS011;8520;50.102;20.010;2022-11-30T06:28:47;70.33;;;63.03;;
16804;SDS011;8520;50.102;20.010;2022-11-30T06:31:15;67.17;;;60.60;;
16804;SDS011;8520;50.102;20.010;2022-11-30T06:33:43;66.07;;;59.57;;
16804;SDS011;8520;50.102;20.010;2022-11-30T06:36:11;64.27;;;58.07;;
16804;SDS011;8520;50.102;20.010;2022-11-30T06:38:39;65.27;;;58.67;;
16804;SDS011;8520;50.102;20.010;2022-11-30T06:41:07;65.43;;;58.90;;
16804;SDS011;8520;50.102;20.010;2022-11-30T06:43:38;65.50;;;58.97;;
16804;SDS011;8520;50.102;20.010;2022-11-30T06:46:08;68.63;;;61.80;;
16804;SDS011;8520;50.102;20.010;2022-11-30T06:48:36;66.67;;;59.97;;
16804;SDS011;8520;50.102;20.010;2022-11-30T06:51:05;69.20;;;62.50;;
16804;SDS011;8520;50.102;20.010;2022-11-30T06:53:33;67.83;;;60.97;;
16804;SDS011;8520;50.102;20.010;2022-11-30T06:56:02;66.13;;;59.87;;
16804;SDS011;8520;50.102;20.010;2022-11-30T06:58:36;68.30;;;61.60;;
16804;SDS011;8520;50.102;20.010;2022-11-30T07:01:04;68.20;;;61.60;;
16804;SDS011;8520;50.102;20.010;2022-11-30T07:03:35;67.47;;;60.93;;
16804;SDS011;8520;50.102;20.010;2022-11-30T07:06:04;68.53;;;61.83;;
16804;SDS011;8520;50.102;20.010;2022-11-30T07:08:34;69.43;;;62.53;;
16804;SDS011;8520;50.102;20.010;2022-11-30T07:11:02;70.63;;;63.73;;
16804;SDS011;8520;50.102;20.010;2022-11-30T07:13:30;67.73;;;61.17;;
16804;SDS011;8520;50.102;20.010;2022-11-30T07:15:59;67.43;;;60.83;;
16804;SDS011;8520;50.102;20.010;2022-11-30T07:18:29;69.53;;;62.77;;
16804;SDS011;8520;50.102;20.010;2022-11-30T07:20:59;71.07;;;64.17;;
16804;SDS011;8520;50.102;20.010;2022-11-30T07:23:28;70.67;;;63.80;;
16804;SDS011;8520;50.102;20.010;2022-11-30T07:26:21;69.90;;;63.13;;
16804;SDS011;8520;50.102;20.010;2022-11-30T07:28:50;73.77;;;66.47;;
16804;SDS011;8520;50.102;20.010;2022-11-30T07:31:24;64.07;;;58.00;;
16804;SDS011;8520;50.102;20.010;2022-11-30T07:33:54;62.77;;;56.73;;
16804;SDS011;8520;50.102;20.010;2022-11-30T07:36:24;62.33;;;56.37;;
16804;SDS011;8520;50.102;20.010;2022-11-30T07:38:55;60.43;;;54.93;;
16804;SDS011;8520;50.102;20.010;2022-11-30T07:41:22;65.00;;;58.70;;
16804;SDS011;8520;50.102;20.010;2022-11-30T07:43:51;65.90;;;59.40;;
16804;SDS011;8520;50.102;20.010;2022-11-30T07:46:19;65.33;;;58.90;;
16804;SDS011;8520;50.102;20.010;2022-11-30T07:48:47;66.00;;;59.47;;
16804;SDS011;8520;50.102;20.010;2022-11-30T07:51:16;69.13;;;62.43;;
16804;SDS011;8520;50.102;20.010;2022-11-30T07:53:46;67.57;;;60.90;;
16804;SDS011;8520;50.102;20.010;2022-11-30T07:56:16;67.87;;;61.20;;
16804;SDS011;8520;50.102;20.010;2022-11-30T07:58:45;68.57;;;61.67;;
16804;SDS011;8520;50.102;20.010;2022-11-30T08:01:14;70.07;;;62.67;;
16804;SDS011;8520;50.102;20.010;2022-11-30T08:03:44;67.90;;;60.93;;
16804;SDS011;8520;50.102;20.010;2022-11-30T08:06:12;63.33;;;56.97;;
16804;SDS011;8520;50.102;20.010;2022-11-30T08:08:43;60.47;;;54.70;;
16804;SDS011;8520;50.102;20.010;2022-11-30T08:11:13;59.27;;;53.60;;
16804;SDS011;8520;50.102;20.010;2022-11-30T08:13:42;58.43;;;52.73;;
16804;SDS011;8520;50.102;20.010;2022-11-30T08:16:11;59.63;;;53.90;;
16804;SDS011;8520;50.102;20.010;2022-11-30T08:18:40;62.13;;;56.23;;
16804;SDS011;8520;50.102;20.010;2022-11-30T08:21:09;62.50;;;56.40;;
16804;SDS011;8520;50.102;20.010;2022-11-30T08:23:39;60.97;;;55.13;;
16804;SDS011;8520;50.102;20.010;2022-11-30T08:26:09;61.87;;;55.93;;
16804;SDS011;8520;50.102;20.010;2022-11-30T08:28:40;61.10;;;55.20;;
16804;SDS011;8520;50.102;20.010;2022-11-30T08:31:12;54.33;;;49.40;;
16804;SDS011;8520;50.102;20.010;2022-11-30T08:33:41;57.67;;;52.27;;
16804;SDS011;8520;50.102;20.010;2022-11-30T08:36:10;60.63;;;54.87;;
16804;SDS011;8520;50.102;20.010;2022-11-30T08:38:39;59.87;;;54.17;;
16804;SDS011;8520;50.102;20.010;2022-11-30T08:41:09;58.97;;;53.47;;
16804;SDS011;8520;50.102;20.010;2022-11-30T08:43:39;57.33;;;52.03;;
16804;SDS011;8520;50.102;20.010;2022-11-30T08:46:09;57.00;;;51.80;;
16804;SDS011;8520;50.102;20.010;2022-11-30T08:48:58;59.50;;;53.77;;
16804;SDS011;8520;50.102;20.010;2022-11-30T08:51:46;57.00;;;51.80;;
16804;SDS011;8520;50.102;20.010;2022-11-30T08:54:34;56.97;;;51.77;;
16804;SDS011;8520;50.102;20.010;2022-11-30T08:57:04;56.57;;;51.27;;
16804;SDS011;8520;50.102;20.010;2022-11-30T08:59:33;58.50;;;52.93;;
16804;SDS011;8520;50.102;20.010;2022-11-30T09:02:01;58.47;;;52.93;;
16804;SDS011;8520;50.102;20.010;2022-11-30T09:04:29;58.87;;;53.20;;
16804;SDS011;8520;50.102;20.010;2022-11-30T09:06:57;53.93;;;49.20;;
16804;SDS011;8520;50.102;20.010;2022-11-30T09:09:26;51.93;;;47.00;;
16804;SDS011;8520;50.102;20.010;2022-11-30T09:11:54;52.00;;;47.33;;
16804;SDS011;8520;50.102;20.010;2022-11-30T09:14:22;54.17;;;49.20;;
16804;SDS011;8520;50.102;20.010;2022-11-30T09:16:53;53.33;;;48.63;;
16804;SDS011;8520;50.102;20.010;2022-11-30T09:19:21;49.80;;;45.40;;
16804;SDS011;8520;50.102;20.010;2022-11-30T09:21:49;49.00;;;44.77;;
16804;SDS011;8520;50.102;20.010;2022-11-30T09:24:18;45.37;;;41.67;;
16804;SDS011;8520;50.102;20.010;2022-11-30T09:26:46;45.57;;;41.87;;
16804;SDS011;8520;50.102;20.010;2022-11-30T09:29:14;43.10;;;39.53;;
16804;SDS011;8520;50.102;20.010;2022-11-30T09:31:42;44.30;;;40.77;;
16804;SDS011;8520;50.102;20.010;2022-11-30T09:34:12;46.67;;;42.70;;
16804;SDS011;8520;50.102;20.010;2022-11-30T09:36:40;46.53;;;42.53;;
16804;SDS011;8520;50.102;20.010;2022-11-30T09:39:08;46.30;;;42.50;;
16804;SDS011;8520;50.102;20.010;2022-11-30T09:44:46;48.63;;;44.50;;
16804;SDS011;8520;50.102;20.010;2022-11-30T09:47:24;47.43;;;43.33;;
16804;SDS011;8520;50.102;20.010;2022-11-30T09:50:02;46.67;;;42.77;;
16804;SDS011;8520;50.102;20.010;2022-11-30T09:52:38;46.80;;;42.70;;
16804;SDS011;8520;50.102;20.010;2022-11-30T09:55:11;48.63;;;44.60;;
16804;SDS011;8520;50.102;20.010;2022-11-30T09:57:42;51.83;;;47.33;;
16804;SDS011;8520;50.102;20.010;2022-11-30T10:00:13;53.27;;;48.37;;
16804;SDS011;8520;50.102;20.010;2022-11-30T10:02:43;53.93;;;49.30;;
16804;SDS011;8520;50.102;20.010;2022-11-30T10:05:14;52.80;;;47.90;;
16804;SDS011;8520;50.102;20.010;2022-11-30T10:07:51;50.87;;;46.57;;
16804;SDS011;8520;50.102;20.010;2022-11-30T10:10:32;49.90;;;45.50;;
16804;SDS011;8520;50.102;20.010;2022-11-30T10:13:12;50.63;;;46.27;;
16804;SDS011;8520;50.102;20.010;2022-11-30T10:15:58;48.90;;;44.80;;
16804;SDS011;8520;50.102;20.010;2022-11-30T10:18:39;48.27;;;44.07;;
16804;SDS011;8520;50.102;20.010;2022-11-30T10:21:23;49.13;;;44.93;;
16804;SDS011;8520;50.102;20.010;2022-11-30T10:24:14;50.10;;;45.67;;
16804;SDS011;8520;50.102;20.010;2022-11-30T10:26:52;41.93;;;38.60;;
16804;SDS011;8520;50.102;20.010;2022-11-30T10:29:24;39.03;;;35.93;;
16804;SDS011;8520;50.102;20.010;2022-11-30T10:31:57;40.97;;;37.77;;
16804;SDS011;8520;50.102;20.010;2022-11-30T10:34:28;39.90;;;36.77;;
16804;SDS011;8520;50.102;20.010;2022-11-30T10:37:03;37.70;;;34.87;;
16804;SDS011;8520;50.102;20.010;2022-11-30T10:39:37;39.10;;;36.17;;
16804;SDS011;8520;50.102;20.010;2022-11-30T10:42:11;40.20;;;36.77;;
16804;SDS011;8520;50.102;20.010;2022-11-30T10:44:45;39.83;;;36.77;;
16804;SDS011;8520;50.102;20.010;2022-11-30T10:47:21;38.77;;;35.77;;
16804;SDS011;8520;50.102;20.010;2022-11-30T10:49:53;36.73;;;33.93;;
16804;SDS011;8520;50.102;20.010;2022-11-30T10:52:22;34.17;;;31.67;;
16804;SDS011;8520;50.102;20.010;2022-11-30T10:54:54;34.57;;;31.90;;
16804;SDS011;8520;50.102;20.010;2022-11-30T10:57:30;31.87;;;29.67;;
16804;SDS011;8520;50.102;20.010;2022-11-30T10:59:59;31.57;;;29.17;;
16804;SDS011;8520;50.102;20.010;2022-11-30T11:02:41;28.57;;;26.70;;
16804;SDS011;8520;50.102;20.010;2022-11-30T11:05:14;29.47;;;27.47;;
16804;SDS011;8520;50.102;20.010;2022-11-30T11:07:47;28.63;;;26.43;;
16804;SDS011;8520;50.102;20.010;2022-11-30T11:10:26;25.73;;;24.03;;
16804;SDS011;8520;50.102;20.010;2022-11-30T11:12:58;28.30;;;26.30;;
16804;SDS011;8520;50.102;20.010;2022-11-30T11:15:26;27.67;;;25.73;;
16804;SDS011;8520;50.102;20.010;2022-11-30T11:18:11;28.03;;;25.87;;
16804;SDS011;8520;50.102;20.010;2022-11-30T11:20:48;27.70;;;25.90;;
16804;SDS011;8520;50.102;20.010;2022-11-30T11:23:34;26.80;;;25.10;;
16804;SDS011;8520;50.102;20.010;2022-11-30T11:26:04;26.23;;;24.60;;
16804;SDS011;8520;50.102;20.010;2022-11-30T11:28:34;25.57;;;23.87;;
16804;SDS011;8520;50.102;20.010;2022-11-30T11:31:14;26.63;;;24.63;;
16804;SDS011;8520;50.102;20.010;2022-11-30T11:33:51;25.80;;;24.10;;
16804;SDS011;8520;50.102;20.010;2022-11-30T11:36:23;26.17;;;24.47;;
16804;SDS011;8520;50.102;20.010;2022-11-30T11:38:56;27.70;;;25.70;;
16804;SDS011;8520;50.102;20.010;2022-11-30T11:41:25;27.93;;;26.03;;
16804;SDS011;8520;50.102;20.010;2022-11-30T11:43:57;28.90;;;26.83;;
16804;SDS011;8520;50.102;20.010;2022-11-30T11:46:29;28.97;;;26.80;;
16804;SDS011;8520;50.102;20.010;2022-11-30T11:48:59;29.90;;;27.60;;
16804;SDS011;8520;50.102;20.010;2022-11-30T11:51:30;29.77;;;27.63;;
16804;SDS011;8520;50.102;20.010;2022-11-30T11:54:01;27.30;;;25.40;;
16804;SDS011;8520;50.102;20.010;2022-11-30T11:56:41;24.20;;;22.57;;
16804;SDS011;8520;50.102;20.010;2022-11-30T11:59:10;26.13;;;24.17;;
16804;SDS011;8520;50.102;20.010;2022-11-30T12:01:45;25.57;;;23.73;;
16804;SDS011;8520;50.102;20.010;2022-11-30T12:04:31;23.87;;;22.37;;
16804;SDS011;8520;50.102;20.010;2022-11-30T12:07:09;24.30;;;22.70;;
16804;SDS011;8520;50.102;20.010;2022-11-30T12:09:49;25.07;;;23.17;;
16804;SDS011;8520;50.102;20.010;2022-11-30T12:12:22;25.57;;;23.77;;
16804;SDS011;8520;50.102;20.010;2022-11-30T12:14:50;27.27;;;25.23;;
16804;SDS011;8520;50.102;20.010;2022-11-30T12:17:25;26.73;;;24.93;;
16804;SDS011;8520;50.102;20.010;2022-11-30T12:20:05;25.30;;;23.70;;
16804;SDS011;8520;50.102;20.010;2022-11-30T12:22:50;26.47;;;24.50;;
16804;SDS011;8520;50.102;20.010;2022-11-30T12:25:33;26.30;;;24.63;;
16804;SDS011;8520;50.102;20.010;2022-11-30T12:28:14;27.87;;;25.77;;
16804;SDS011;8520;50.102;20.010;2022-11-30T12:30:53;27.67;;;25.73;;
16804;SDS011;8520;50.102;20.010;2022-11-30T12:33:40;27.20;;;25.20;;
16804;SDS011;8520;50.102;20.010;2022-11-30T12:36:18;28.73;;;26.63;;
16804;SDS011;8520;50.102;20.010;2022-11-30T12:38:56;28.70;;;26.40;;
16804;SDS011;8520;50.102;20.010;2022-11-30T12:41:30;29.37;;;27.27;;
16804;SDS011;8520;50.102;20.010;2022-11-30T12:44:20;30.60;;;28.50;;
16804;SDS011;8520;50.102;20.010;2022-11-30T12:47:05;31.23;;;29.03;;
16804;SDS011;8520;50.102;20.010;2022-11-30T12:49:47;31.83;;;29.57;;
16804;SDS011;8520;50.102;20.010;2022-11-30T12:52:31;31.80;;;29.27;;
16804;SDS011;8520;50.102;20.010;2022-11-30T12:55:09;31.93;;;29.53;;
16804;SDS011;8520;50.102;20.010;2022-11-30T12:57:48;31.97;;;29.63;;
16804;SDS011;8520;50.102;20.010;2022-11-30T13:00:22;31.63;;;29.20;;
16804;SDS011;8520;50.102;20.010;2022-11-30T13:03:03;33.23;;;30.73;;
16804;SDS011;8520;50.102;20.010;2022-11-30T13:05:43;32.27;;;29.60;;
16804;SDS011;8520;50.102;20.010;2022-11-30T13:08:17;32.20;;;29.60;;
16804;SDS011;8520;50.102;20.010;2022-11-30T13:10:50;33.70;;;31.00;;
16804;SDS011;8520;50.102;20.010;2022-11-30T13:13:24;35.33;;;32.53;;
16804;SDS011;8520;50.102;20.010;2022-11-30T13:15:55;35.00;;;32.37;;
16804;SDS011;8520;50.102;20.010;2022-11-30T13:18:25;36.33;;;33.53;;
16804;SDS011;8520;50.102;20.010;2022-11-30T13:20:54;35.37;;;32.63;;
16804;SDS011;8520;50.102;20.010;2022-11-30T13:23:33;33.33;;;30.83;;
16804;SDS011;8520;50.102;20.010;2022-11-30T13:26:05;32.47;;;29.90;;
16804;SDS011;8520;50.102;20.010;2022-11-30T13:28:49;33.00;;;30.50;;
16804;SDS011;8520;50.102;20.010;2022-11-30T13:31:30;34.57;;;31.80;;
16804;SDS011;8520;50.102;20.010;2022-11-30T13:34:02;34.53;;;31.73;;
16804;SDS011;8520;50.102;20.010;2022-11-30T13:36:31;34.60;;;31.93;;
16804;SDS011;8520;50.102;20.010;2022-11-30T13:39:17;36.50;;;33.40;;
16804;SDS011;8520;50.102;20.010;2022-11-30T13:41:49;36.50;;;33.70;;
16804;SDS011;8520;50.102;20.010;2022-11-30T13:44:39;36.53;;;33.43;;
16804;SDS011;8520;50.102;20.010;2022-11-30T13:47:14;36.37;;;33.23;;
16804;SDS011;8520;50.102;20.010;2022-11-30T13:49:44;39.53;;;36.03;;
16804;SDS011;8520;50.102;20.010;2022-11-30T13:52:13;38.10;;;34.93;;
16804;SDS011;8520;50.102;20.010;2022-11-30T13:54:50;38.80;;;35.33;;
16804;SDS011;8520;50.102;20.010;2022-11-30T14:00:46;39.07;;;35.73;;
16804;SDS011;8520;50.102;20.010;2022-11-30T14:03:27;37.57;;;34.40;;
16804;SDS011;8520;50.102;20.010;2022-11-30T14:05:57;39.87;;;36.17;;
16804;SDS011;8520;50.102;20.010;2022-11-30T14:08:30;39.70;;;36.33;;
16804;SDS011;8520;50.102;20.010;2022-11-30T14:17:15;42.23;;;38.63;;
16804;SDS011;8520;50.102;20.010;2022-11-30T14:19:46;42.30;;;38.73;;
16804;SDS011;8520;50.102;20.010;2022-11-30T14:22:17;42.57;;;38.60;;
16804;SDS011;8520;50.102;20.010;2022-11-30T14:24:46;43.53;;;39.50;;
16804;SDS011;8520;50.102;20.010;2022-11-30T14:27:16;43.53;;;39.63;;
16804;SDS011;8520;50.102;20.010;2022-11-30T14:29:48;43.60;;;39.53;;
16804;SDS011;8520;50.102;20.010;2022-11-30T14:32:24;45.07;;;40.83;;
16804;SDS011;8520;50.102;20.010;2022-11-30T14:35:09;43.80;;;40.00;;
16804;SDS011;8520;50.102;20.010;2022-11-30T14:37:40;42.63;;;38.80;;
16804;SDS011;8520;50.102;20.010;2022-11-30T14:40:16;44.07;;;39.80;;
16804;SDS011;8520;50.102;20.010;2022-11-30T14:42:47;43.23;;;39.33;;
16804;SDS011;8520;50.102;20.010;2022-11-30T14:45:18;43.47;;;39.63;;
16804;SDS011;8520;50.102;20.010;2022-11-30T14:47:51;43.33;;;39.43;;
16804;SDS011;8520;50.102;20.010;2022-11-30T14:50:30;45.73;;;41.40;;
16804;SDS011;8520;50.102;20.010;2022-11-30T14:53:08;46.90;;;42.50;;
16804;SDS011;8520;50.102;20.010;2022-11-30T14:55:48;46.07;;;41.77;;
16804;SDS011;8520;50.102;20.010;2022-11-30T14:58:20;46.60;;;42.20;;
16804;SDS011;8520;50.102;20.010;2022-11-30T15:00:52;45.10;;;40.70;;
16804;SDS011;8520;50.102;20.010;2022-11-30T15:03:26;46.27;;;42.03;;
16804;SDS011;8520;50.102;20.010;2022-11-30T15:06:03;47.57;;;43.23;;